Flight Track Log - Related Links

Times and Time Zones

All times are in EDT time to prevent confusion due to time zone crossing. See the C-GFMT flight status page for this flight to view local times or setup timezone preferences in your user account.

Time Position Orientation Groundspeed Altitude Reporting Facility
EDT Latitude Longitude Course Direction KTS MPH feet Rate Location/Type
Thu 09:08:10 PM 43.8667 -79.3500 188° South 90 104 1,400  Level Toronto Center
Thu 09:09:10 PM 43.8833 -79.4000 295° West 100 115 1,900 550 Climbing Toronto Center
Thu 09:10:10 PM 43.9000 -79.4167 324° Northwest 100 115 2,500 550 Climbing Toronto Center
Thu 09:11:10 PM 43.9167 -79.4000 36° Northeast 100 115 3,000 250 Climbing Toronto Center
Thu 09:12:10 PM 43.8833 -79.3833 160° South 130 150 3,000  Level Toronto Center
Thu 09:13:00 PM 43.8622 -79.3700 188° South  Level Estimated
Thu 09:13:10 PM 43.8500 -79.3333 133° Southeast 140 161 3,000  Level Toronto Center
Thu 09:14:10 PM 43.8167 -79.3167 160° South 130 150 3,000  Level Toronto Center
Thu 09:15:10 PM 43.8000 -79.2833 125° Southeast 120 138 3,000  Level Toronto Center
Thu 09:16:10 PM 43.7667 -79.2667 160° South 120 138 3,000  Level Toronto Center
Thu 09:17:10 PM 43.7333 -79.2667 180° South 120 138 3,000  Level Toronto Center
Thu 09:18:10 PM 43.7000 -79.2667 180° South 120 138 3,000  Level Toronto Center
Thu 09:19:10 PM 43.6667 -79.2667 180° South 120 138 3,000  Level Toronto Center
Thu 09:20:10 PM 43.6333 -79.2833 200° South 120 138 3,000  Level Toronto Center
Thu 09:21:10 PM 43.6000 -79.2833 180° South 120 138 3,000  Level Toronto Center
Thu 09:22:10 PM 43.5667 -79.3333 227° Southwest 120 138 3,000  Level Toronto Center
Thu 09:23:10 PM 43.5500 -79.3500 216° Southwest 120 138 3,000  Level Toronto Center
Thu 09:24:10 PM 43.5167 -79.3833 216° Southwest 120 138 3,000  Level Toronto Center
Thu 09:25:10 PM 43.4833 -79.4000 200° South 120 138 3,000  Level Toronto Center
Thu 09:26:10 PM 43.4667 -79.4333 235° Southwest 120 138 3,000 250 Level Toronto Center
Thu 09:27:10 PM 43.4333 -79.4667 216° Southwest 120 138 3,500 500 Climbing Toronto Center
Thu 09:28:10 PM 43.4167 -79.5000 235° Southwest 120 138 4,000 300 Climbing Toronto Center
Thu 09:29:10 PM 43.3833 -79.5167 200° South 130 150 4,100 50 Climbing Toronto Center
Thu 09:30:10 PM 43.3500 -79.5667 227° Southwest 140 161 4,100 -50 Level Toronto Center
Thu 09:31:10 PM 43.3333 -79.6167 245° Southwest 140 161 4,000 -50 Descending Toronto Center
Thu 09:32:10 PM 43.3000 -79.6500 216° Southwest 140 161 4,000 100 Level Toronto Center
Thu 09:33:10 PM 43.2833 -79.7000 245° Southwest 140 161 4,200 500 Climbing Toronto Center
Thu 09:34:10 PM 43.2667 -79.7500 245° Southwest 130 150 5,000 450 Climbing Toronto Center
Thu 09:35:10 PM 43.2500 -79.8000 245° Southwest 140 161 5,100  Climbing Toronto Center
Thu 09:36:10 PM 43.2333 -79.8333 236° Southwest 140 161 5,000 -100 Descending Toronto Center
Thu 09:37:10 PM 43.2167 -79.8833 245° Southwest 140 161 4,900  Descending Toronto Center
Thu 09:38:10 PM 43.2000 -79.9333 245° Southwest 140 161 5,000 100 Climbing Toronto Center
Thu 09:39:10 PM 43.2000 -79.9833 270° West 140 161 5,100 50 Climbing Toronto Center
Thu 09:40:10 PM 43.1833 -80.0167 236° Southwest 140 161 5,100  Level Toronto Center
Thu 09:41:10 PM 43.1667 -80.0833 251° West 150 173 5,100  Level Toronto Center
Thu 09:42:10 PM 43.2000 -80.0833 360° North 130 150 5,100  Level Toronto Center
Thu 09:43:10 PM 43.2000 -80.0500 90° East 120 138 5,100  Level Toronto Center
Thu 09:44:10 PM 43.1833 -80.0000 115° Southeast 120 138 5,100 -50 Level Toronto Center
Thu 09:45:10 PM 43.1500 -80.0167 200° South 140 161 5,000  Descending Toronto Center
Thu 09:46:10 PM 43.1667 -80.0667 295° West 140 161 5,100  Climbing Toronto Center
Thu 09:47:10 PM 43.1833 -80.0833 324° Northwest 130 150 5,000  Descending Toronto Center
Thu 09:48:10 PM 43.2000 -80.0500 56° Northeast 120 138 5,100  Climbing Toronto Center
Thu 09:49:10 PM 43.1833 -80.0000 115° Southeast 120 138 5,000 -50 Descending Toronto Center
Thu 09:50:10 PM 43.1500 -80.0167 200° South 130 150 5,000  Level Toronto Center
Thu 09:51:10 PM 43.1833 -80.0667 312° West 140 161 5,000 -50 Level Toronto Center
Thu 09:52:10 PM 43.2000 -80.0667 360° North 120 138 4,900  Descending Toronto Center
Thu 09:53:10 PM 43.1833 -80.0167 115° Southeast 120 138 5,000 50 Climbing Toronto Center
Thu 09:54:10 PM 43.1667 -79.9833 124° Southeast 120 138 5,000 -100 Level Toronto Center
Thu 09:55:10 PM 43.1667 -80.0500 270° West 140 161 4,800 -450 Descending Toronto Center
Thu 09:56:10 PM 43.1833 -80.0833 304° West 140 161 4,100 -900 Descending Toronto Center
Thu 09:57:10 PM 43.1833 -80.1167 270° West 120 138 3,000 -650 Descending Toronto Center
Thu 09:58:10 PM 43.2167 -80.1333 340° North 100 115 2,800  Descending Toronto Center
Thu 09:59:10 PM 43.2000 -80.0833 115° Southeast 100 115 3,000 50 Climbing Toronto Center
Thu 10:00:10 PM 43.2000 -80.0500 90° East 100 115 2,900 -500 Descending Toronto Center
Thu 10:01:10 PM 43.1833 -80.0167 124° Southeast 100 115 2,000 -600 Descending Toronto Center
Thu 10:02:10 PM 43.1833 -79.9833 90° East 100 115 1,700 -500 Descending Toronto Center
Thu 10:03:10 PM 43.1667 -79.9500 124° Southeast 90 104 1,000 -150 Descending Toronto Center
Thu 10:04:10 PM 43.1667 -79.9000 90° East 110 127 1,400 500 Climbing Toronto Center
Thu 10:05:10 PM 43.1500 -79.8667 124° Southeast 110 127 2,000 550 Climbing Toronto Center
Thu 10:06:10 PM 43.1667 -79.8333 56° Northeast 110 127 2,500 500 Climbing Toronto Center
Thu 10:07:10 PM 43.2000 -79.8167 20° North 120 138 3,000 300 Climbing Toronto Center
Thu 10:08:10 PM 43.2333 -79.8333 340° North 120 138 3,100 50 Climbing Toronto Center
Thu 10:09:10 PM 43.2500 -79.8667 304° West 130 150 3,100 50 Level Toronto Center
Thu 10:10:10 PM 43.2833 -79.8833 340° North 130 150 3,200  Climbing Toronto Center
Thu 10:11:10 PM 43.3000 -79.9333 295° West 130 150 3,100 -50 Descending Toronto Center
Thu 10:12:10 PM 43.2667 -79.9500 200° South 140 161 3,100  Level Toronto Center
Thu 10:13:10 PM 43.2333 -79.9833 216° Southwest 140 161 3,100  Level Toronto Center
Thu 10:14:10 PM 43.2000 -80.0000 200° South 140 161 3,100 -50 Level Toronto Center
Thu 10:15:10 PM 43.1667 -80.0500 228° Southwest 140 161 3,000 -200 Descending Toronto Center
Thu 10:16:10 PM 43.1500 -80.0833 236° Southwest 130 150 2,700 -100 Descending Toronto Center
Thu 10:17:10 PM 43.1667 -80.1333 295° West 120 138 2,800 50 Climbing Toronto Center
Thu 10:18:10 PM 43.1833 -80.1333 360° North 100 115 2,800 50 Level Toronto Center
Thu 10:19:10 PM 43.2000 -80.1167 36° Northeast 100 115 2,900 50 Climbing Toronto Center
Thu 10:20:10 PM 43.2000 -80.0667 90° East 110 127 2,900 -450 Level Toronto Center
Thu 10:21:10 PM 43.1833 -80.0167 115° Southeast 110 127 2,000 -50 Descending Toronto Center
Thu 10:22:10 PM 43.1833 -80.0000 90° East 100 115 2,800 850 Climbing Toronto Center
Thu 10:23:10 PM 43.2000 -79.9500 65° Northeast 100 115 3,700 650 Climbing Toronto Center
Thu 10:24:10 PM 43.2000 -79.9000 90° East 110 127 4,100 250 Climbing Toronto Center
Thu 10:25:10 PM 43.2167 -79.8667 56° Northeast 120 138 4,200  Climbing Toronto Center
Thu 10:26:10 PM 43.2167 -79.8167 90° East 130 150 4,100 -50 Descending Toronto Center
Thu 10:27:10 PM 43.2333 -79.7667 65° Northeast 130 150 4,100 -50 Level Toronto Center
Thu 10:28:10 PM 43.2500 -79.7500 36° Northeast 130 150 4,000 -50 Descending Toronto Center
Thu 10:29:10 PM 43.2833 -79.7000 48° Northeast 130 150 4,000  Level Toronto Center
Thu 10:30:10 PM 43.3167 -79.6500 47° Northeast 130 150 4,000 50 Level Toronto Center
Thu 10:31:10 PM 43.3333 -79.6333 36° Northeast 130 150 4,100 50 Climbing Toronto Center
Thu 10:32:10 PM 43.3667 -79.5833 47° Northeast 130 150 4,100  Level Toronto Center
Thu 10:33:10 PM 43.3833 -79.5667 36° Northeast 130 150 4,100 -50 Level Toronto Center
Thu 10:34:10 PM 43.4167 -79.5167 47° Northeast 140 161 4,000 -50 Descending Toronto Center
Thu 10:35:10 PM 43.4333 -79.4667 65° Northeast 140 161 4,000  Level Toronto Center
Thu 10:36:10 PM 43.4667 -79.4500 20° North 130 150 4,000  Level Toronto Center
Thu 10:37:10 PM 43.4833 -79.4000 65° Northeast 130 150 4,000  Level Toronto Center
Thu 10:38:10 PM 43.5167 -79.3500 47° Northeast 130 150 4,000  Level Toronto Center
Thu 10:39:10 PM 43.5333 -79.3333 36° Northeast 130 150 4,000  Level Toronto Center
Thu 10:40:10 PM 43.5667 -79.2833 47° Northeast 130 150 4,000  Level Toronto Center
Thu 10:41:10 PM 43.6000 -79.2667 20° North 130 150 4,000 -50 Level Toronto Center
Thu 10:42:10 PM 43.6167 -79.2167 65° Northeast 130 150 3,900 -50 Descending Toronto Center
Thu 10:43:10 PM 43.6500 -79.1667 47° Northeast 140 161 3,900  Level Toronto Center
Thu 10:44:10 PM 43.6667 -79.1500 36° Northeast 140 161 3,900 100 Level Toronto Center
Thu 10:45:10 PM 43.7000 -79.1667 340° North 130 150 4,100 -550 Climbing Toronto Center
Thu 10:46:10 PM 43.7167 -79.2167 295° West 140 161 2,800 -750 Descending Toronto Center
Thu 10:47:10 PM 43.7500 -79.2333 340° North 120 138 2,600 -600 Descending Toronto Center
Thu 10:48:10 PM 43.7667 -79.2667 305° West 120 138 1,600 -550 Descending Toronto Center
Thu 10:49:10 PM 43.8000 -79.2833 340° North 100 115 1,500 -150 Descending Toronto Center
Thu 10:50:10 PM 43.8167 -79.3167 305° West 80 92 1,300 -200 Descending Toronto Center
Thu 10:51:10 PM 43.8333 -79.3333 324° Northwest 80 92 1,100 -250 Descending Toronto Center
Thu 10:52:10 PM 43.8500 -79.3500 324° Northwest 80 92 800 -300 Descending Toronto Center
Thu 10:54:00 PM 43.8500 -79.3667 North  Level FlightAware Approximate

Login

Don't have an account? Register now (free) for customized features, flight alerts, and more!